Time;durP1;ratioP1;P1;durP2;ratioP2;P2;SDS_P1;SDS_P2;PMS_P1;PMS_P2;Temp;Humidity;BMP_temperature;BMP_pressure;BME280_temperature;BME280_humidity;BME280_pressure;Samples;Min_cycle;Max_cycle;Signal;HPM_P1;HPM_P2
2022/05/18 00:00:02;;;;;;;5.68;3.13;;;18.20;99.90;;;;;;4984165;28;20069;-49
2022/05/18 00:02:28;;;;;;;7.18;3.75;;;18.30;99.90;;;;;;4983925;28;20491;-50
2022/05/18 00:04:53;;;;;;;4.78;2.92;;;18.20;99.90;;;;;;4988688;28;20092;-48
2022/05/18 00:07:19;;;;;;;5.22;3.10;;;18.10;99.90;;;;;;4986168;28;20045;-51
2022/05/18 00:09:45;;;;;;;5.97;3.55;;;18.10;99.90;;;;;;4985163;28;20184;-45
2022/05/18 00:12:11;;;;;;;6.65;3.60;;;18.10;99.90;;;;;;4971015;28;20100;-50
2022/05/18 00:14:38;;;;;;;6.13;3.30;;;18.00;99.90;;;;;;4988233;28;20049;-49
2022/05/18 00:17:04;;;;;;;5.43;3.47;;;18.00;99.90;;;;;;4987177;28;20065;-48
2022/05/18 00:19:31;;;;;;;6.70;3.97;;;17.90;99.90;;;;;;4987516;28;20061;-46
2022/05/18 00:21:58;;;;;;;10.25;3.85;;;17.90;99.90;;;;;;4988360;28;20111;-50
2022/05/18 00:24:23;;;;;;;7.82;3.05;;;17.90;99.90;;;;;;4990498;28;20117;-48
2022/05/18 00:26:49;;;;;;;5.18;3.22;;;17.90;99.90;;;;;;4975795;28;20117;-49
2022/05/18 00:29:15;;;;;;;5.88;3.20;;;17.80;99.90;;;;;;4989137;28;20041;-51
2022/05/18 00:31:41;;;;;;;6.85;3.75;;;17.80;99.90;;;;;;4988271;28;20072;-47
2022/05/18 00:34:08;;;;;;;7.80;3.67;;;17.80;99.90;;;;;;4989509;28;20034;-48
2022/05/18 00:36:33;;;;;;;6.25;3.63;;;17.70;99.90;;;;;;4989472;28;20161;-48
2022/05/18 00:38:59;;;;;;;7.78;3.72;;;17.70;99.90;;;;;;4989165;28;20035;-50
2022/05/18 00:41:27;;;;;;;6.97;3.90;;;17.70;99.90;;;;;;4984297;28;20038;-50
2022/05/18 00:43:54;;;;;;;6.28;3.20;;;17.60;99.90;;;;;;4968146;28;20050;-49
2022/05/18 00:46:21;;;;;;;7.43;4.15;;;17.60;99.90;;;;;;4988125;28;20050;-50
2022/05/18 00:48:47;;;;;;;7.78;3.47;;;17.50;99.90;;;;;;4986314;28;20108;-47
2022/05/18 00:51:29;;;;;;;7.68;3.30;;;17.50;99.90;;;;;;4983320;28;20109;-49
2022/05/18 00:54:03;;;;;;;5.65;3.42;;;17.50;99.90;;;;;;4985816;28;20062;-50
2022/05/18 00:56:35;;;;;;;8.80;4.13;;;17.40;99.90;;;;;;4982427;28;20081;-51
2022/05/18 00:59:11;;;;;;;6.65;3.33;;;17.40;99.90;;;;;;4987403;28;20141;-48
2022/05/18 01:01:38;;;;;;;7.75;3.95;;;17.40;99.90;;;;;;4987823;28;20050;-51
2022/05/18 01:04:06;;;;;;;8.05;3.92;;;17.30;99.90;;;;;;4988351;28;20432;-51
2022/05/18 01:06:45;;;;;;;8.20;4.00;;;17.30;99.90;;;;;;4970665;28;20053;-47
2022/05/18 01:09:35;;;;;;;7.88;3.72;;;17.20;99.90;;;;;;4966459;28;20043;-43
2022/05/18 01:12:02;;;;;;;7.93;3.97;;;17.20;99.90;;;;;;4984629;28;20538;-49
2022/05/18 01:14:43;;;;;;;8.13;4.15;;;17.20;99.90;;;;;;4985919;28;20065;-48
2022/05/18 01:17:11;;;;;;;5.22;3.40;;;17.10;99.90;;;;;;4984003;28;20065;-48
2022/05/18 01:19:45;;;;;;;8.80;4.53;;;17.10;99.90;;;;;;4988069;28;20042;-49
2022/05/18 01:22:29;;;;;;;6.63;3.90;;;17.10;99.90;;;;;;4982434;28;20195;-51
2022/05/18 01:25:00;;;;;;;8.15;3.92;;;17.10;99.90;;;;;;4985248;28;20045;-45
2022/05/18 01:27:27;;;;;;;5.43;3.08;;;17.00;99.90;;;;;;4986936;28;20435;-48
2022/05/18 01:29:53;;;;;;;7.82;3.33;;;17.00;99.90;;;;;;4984683;28;20133;-45
2022/05/18 01:32:19;;;;;;;6.68;4.18;;;17.00;99.90;;;;;;4979286;28;20197;-50
2022/05/18 01:34:45;;;;;;;8.02;3.40;;;16.90;99.90;;;;;;4986480;28;20093;-50
2022/05/18 01:37:13;;;;;;;5.40;3.80;;;16.90;99.90;;;;;;4984146;28;20031;-47
2022/05/18 01:40:00;;;;;;;7.45;4.40;;;16.80;99.90;;;;;;4985772;28;20034;-50
2022/05/18 01:42:46;;;;;;;8.38;3.72;;;16.80;99.90;;;;;;4985000;28;20038;-50
2022/05/18 01:45:13;;;;;;;6.93;3.97;;;16.70;99.90;;;;;;4980858;28;20523;-49
2022/05/18 01:47:40;;;;;;;5.60;4.10;;;16.70;99.90;;;;;;4980674;28;20552;-50
2022/05/18 01:50:10;;;;;;;6.55;4.07;;;16.70;99.90;;;;;;4970037;28;20054;-49
2022/05/18 01:52:36;;;;;;;7.30;4.20;;;16.60;99.90;;;;;;4987249;28;20042;-47
2022/05/18 01:55:03;;;;;;;6.10;3.83;;;16.60;99.90;;;;;;4987950;28;20077;-47
2022/05/18 01:57:29;;;;;;;7.05;4.60;;;16.50;99.90;;;;;;4984186;28;20117;-49
2022/05/18 01:59:55;;;;;;;7.22;4.25;;;16.50;99.90;;;;;;4987106;28;20133;-49
2022/05/18 02:02:22;;;;;;;10.05;4.97;;;16.50;99.90;;;;;;4980233;28;20050;-52
2022/05/18 02:04:48;;;;;;;6.75;4.13;;;16.50;99.90;;;;;;4982436;28;20046;-49
2022/05/18 02:07:14;;;;;;;7.78;4.50;;;16.50;99.90;;;;;;4985561;28;20061;-50
2022/05/18 02:09:40;;;;;;;9.75;4.63;;;16.50;99.90;;;;;;4969217;28;20133;-50
2022/05/18 02:12:08;;;;;;;10.05;5.03;;;16.50;99.90;;;;;;4986666;28;20042;-50
2022/05/18 02:14:33;;;;;;;10.23;4.85;;;16.50;99.90;;;;;;4983715;28;20030;-50
2022/05/18 02:16:59;;;;;;;6.32;4.30;;;16.40;99.90;;;;;;4985217;28;20027;-50
2022/05/18 02:19:25;;;;;;;7.00;4.22;;;16.40;99.90;;;;;;4986038;28;20108;-47
2022/05/18 02:21:51;;;;;;;7.07;3.75;;;16.40;99.90;;;;;;4986522;28;20042;-49
2022/05/18 02:24:17;;;;;;;7.32;4.05;;;16.40;99.90;;;;;;4984438;28;20500;-47
2022/05/18 02:26:43;;;;;;;7.90;4.22;;;16.40;99.90;;;;;;4983475;28;20056;-48
2022/05/18 02:29:09;;;;;;;7.63;4.18;;;16.40;99.90;;;;;;4987485;28;20681;-50
2022/05/18 02:31:35;;;;;;;7.03;4.25;;;16.40;99.90;;;;;;4982350;28;20038;-46
2022/05/18 02:34:02;;;;;;;9.40;4.55;;;16.40;99.90;;;;;;4979577;28;20125;-48
2022/05/18 02:36:27;;;;;;;7.10;3.60;;;16.40;99.90;;;;;;4988574;28;20066;-48
2022/05/18 02:38:53;;;;;;;5.78;3.28;;;16.30;99.90;;;;;;4986218;28;20066;-46
2022/05/18 02:41:19;;;;;;;7.40;5.15;;;16.40;99.90;;;;;;4985081;28;20046;-49
2022/05/18 02:43:45;;;;;;;7.68;4.93;;;16.30;99.90;;;;;;4970215;28;20432;-49
2022/05/18 02:46:14;;;;;;;6.97;4.00;;;16.30;99.90;;;;;;4984425;28;22132;-50
2022/05/18 02:48:41;;;;;;;7.50;4.57;;;16.30;99.90;;;;;;4983934;28;20073;-51
2022/05/18 02:51:08;;;;;;;9.35;4.93;;;16.30;99.90;;;;;;4984591;28;20061;-51
2022/05/18 02:53:34;;;;;;;8.30;4.90;;;16.20;99.90;;;;;;4984734;28;20042;-50
2022/05/18 02:56:06;;;;;;;6.55;4.05;;;16.20;99.90;;;;;;4989037;28;20042;-50
2022/05/18 02:58:48;;;;;;;7.97;4.35;;;16.20;99.90;;;;;;4980996;28;20070;-48
2022/05/18 03:01:23;;;;;;;8.27;4.60;;;16.10;99.90;;;;;;4987388;28;20050;-49
2022/05/18 03:03:49;;;;;;;5.78;3.65;;;16.10;99.90;;;;;;4990333;28;20115;-46
2022/05/18 03:06:17;;;;;;;7.50;5.30;;;16.00;99.90;;;;;;4983150;28;20121;-53
2022/05/18 03:08:44;;;;;;;10.85;5.30;;;16.00;99.90;;;;;;4981719;28;20058;-48
2022/05/18 03:11:11;;;;;;;7.78;4.63;;;15.90;99.90;;;;;;4969272;28;20085;-51
2022/05/18 03:13:37;;;;;;;8.05;5.25;;;15.90;99.90;;;;;;4991037;28;20183;-49
2022/05/18 03:16:04;;;;;;;6.78;4.85;;;15.80;99.90;;;;;;4971351;28;20083;-48
2022/05/18 03:18:31;;;;;;;7.72;4.68;;;15.80;99.90;;;;;;4988741;28;20057;-50
2022/05/18 03:23:42;;;;;;;11.07;5.28;;;15.70;99.90;;;;;;4969653;28;20437;-51
2022/05/18 03:26:13;;;;;;;10.15;5.50;;;15.70;99.90;;;;;;4988772;28;20064;-48
2022/05/18 03:28:44;;;;;;;9.52;5.13;;;15.60;99.90;;;;;;4988687;28;20030;-46
2022/05/18 03:31:10;;;;;;;7.68;4.20;;;15.70;99.90;;;;;;4988847;28;20046;-51
2022/05/18 03:33:37;;;;;;;8.60;5.20;;;15.60;99.90;;;;;;4971554;28;20499;-51
2022/05/18 03:36:04;;;;;;;9.38;5.32;;;15.60;99.90;;;;;;4989312;28;20049;-50
2022/05/18 03:38:30;;;;;;;6.47;4.20;;;15.60;99.90;;;;;;4992179;28;20125;-50
2022/05/18 03:40:55;;;;;;;8.75;4.90;;;15.50;99.90;;;;;;4986434;28;20634;-46
2022/05/18 03:43:22;;;;;;;7.57;4.80;;;15.50;99.90;;;;;;4982145;28;20038;-50
2022/05/18 03:45:48;;;;;;;7.45;5.60;;;15.50;99.90;;;;;;4990907;28;20122;-50
2022/05/18 03:48:15;;;;;;;8.60;5.40;;;15.50;99.90;;;;;;4983936;28;20124;-47
2022/05/18 03:50:43;;;;;;;8.32;5.40;;;15.50;99.90;;;;;;4985045;28;20559;-50
2022/05/18 03:53:09;;;;;;;7.38;4.32;;;15.50;99.90;;;;;;4972749;28;20066;-44
2022/05/18 03:55:38;;;;;;;8.70;5.68;;;15.50;99.90;;;;;;4990192;28;20547;-49
2022/05/18 03:58:04;;;;;;;9.70;5.72;;;15.50;99.90;;;;;;4990280;28;20081;-50
2022/05/18 04:00:30;;;;;;;7.55;5.00;;;15.50;99.90;;;;;;4989537;28;20070;-50
2022/05/18 04:02:57;;;;;;;8.70;5.78;;;15.50;99.90;;;;;;4986435;28;20034;-50
2022/05/18 04:05:23;;;;;;;7.93;5.68;;;15.50;99.90;;;;;;4985665;28;20069;-49
2022/05/18 04:07:49;;;;;;;9.15;5.43;;;15.60;99.90;;;;;;4953473;28;20134;-50
2022/05/18 04:10:16;;;;;;;7.75;4.78;;;15.50;99.90;;;;;;4967510;28;20053;-48
2022/05/18 04:12:43;;;;;;;7.50;4.32;;;15.50;99.90;;;;;;4983722;28;20089;-51
2022/05/18 04:15:11;;;;;;;13.52;5.82;;;15.50;99.90;;;;;;4989118;28;20074;-51
2022/05/18 04:17:37;;;;;;;7.53;5.90;;;15.60;99.90;;;;;;4986086;28;20717;-49
2022/05/18 04:20:06;;;;;;;10.15;5.15;;;15.60;99.90;;;;;;4988983;28;20121;-50
2022/05/18 04:22:32;;;;;;;8.57;5.38;;;15.60;99.90;;;;;;4980927;28;20034;-50
2022/05/18 04:25:03;;;;;;;7.95;5.40;;;15.60;99.90;;;;;;4989842;28;20045;-51
2022/05/18 04:27:31;;;;;;;10.38;5.97;;;15.60;99.90;;;;;;4987356;28;20064;-50
2022/05/18 04:29:57;;;;;;;8.98;5.75;;;15.70;99.90;;;;;;4984758;28;20129;-44
2022/05/18 04:32:23;;;;;;;8.57;5.95;;;15.70;99.90;;;;;;4989097;28;20454;-50
2022/05/18 04:34:50;;;;;;;9.77;5.63;;;15.70;99.90;;;;;;4986679;28;20054;-47
2022/05/18 04:37:16;;;;;;;8.63;6.03;;;15.80;99.90;;;;;;4988285;28;20444;-51
2022/05/18 04:39:43;;;;;;;9.18;5.53;;;15.90;99.90;;;;;;4983830;28;20493;-47
2022/05/18 04:42:09;;;;;;;9.57;6.03;;;16.00;99.90;;;;;;4965167;28;20133;-46
2022/05/18 04:44:35;;;;;;;12.68;6.72;;;16.00;99.90;;;;;;4986044;28;20144;-51
2022/05/18 04:47:01;;;;;;;12.48;5.35;;;16.00;99.90;;;;;;4983416;28;20057;-50
2022/05/18 04:49:28;;;;;;;9.27;5.75;;;16.10;99.90;;;;;;4988100;28;20030;-50
2022/05/18 04:51:54;;;;;;;10.18;6.32;;;16.20;99.90;;;;;;4984000;28;20101;-51
2022/05/18 04:54:19;;;;;;;10.32;5.10;;;16.20;99.90;;;;;;4989645;28;20046;-48
2022/05/18 04:56:45;;;;;;;12.85;6.68;;;16.20;99.90;;;;;;4987766;28;20050;-49
2022/05/18 04:59:12;;;;;;;10.65;6.85;;;16.30;99.90;;;;;;4971129;28;20069;-46
2022/05/18 05:01:39;;;;;;;10.55;6.72;;;16.30;99.90;;;;;;4986817;28;20035;-49
2022/05/18 05:04:09;;;;;;;8.38;5.80;;;16.40;99.90;;;;;;4988825;28;20045;-50
2022/05/18 05:06:39;;;;;;;10.18;6.55;;;16.40;99.90;;;;;;4985973;28;20044;-51
2022/05/18 05:09:05;;;;;;;9.15;6.78;;;16.50;99.90;;;;;;4986823;28;20348;-50
2022/05/18 05:11:31;;;;;;;7.75;6.13;;;16.60;99.90;;;;;;4986396;28;20049;-48
2022/05/18 05:13:56;;;;;;;11.48;6.63;;;16.60;99.90;;;;;;4983364;28;20030;-44
2022/05/18 05:16:22;;;;;;;10.48;6.45;;;16.70;99.90;;;;;;4969058;28;20542;-47
2022/05/18 05:18:48;;;;;;;8.85;6.85;;;16.70;99.90;;;;;;4986041;28;20101;-49
2022/05/18 05:21:14;;;;;;;9.52;5.85;;;16.80;99.90;;;;;;4984694;28;20054;-51
2022/05/18 05:23:40;;;;;;;10.43;6.88;;;16.90;99.90;;;;;;4986148;28;20030;-51
2022/05/18 05:26:05;;;;;;;9.70;6.85;;;17.00;99.90;;;;;;4969645;28;20042;-48
2022/05/18 05:28:31;;;;;;;10.13;6.10;;;17.00;99.90;;;;;;4955290;28;20141;-51
2022/05/18 05:31:04;;;;;;;9.27;6.53;;;17.10;99.90;;;;;;4992712;28;20104;-48
2022/05/18 05:33:31;;;;;;;8.75;6.47;;;17.10;99.90;;;;;;4990796;28;20049;-51
2022/05/18 05:35:57;;;;;;;9.10;6.32;;;17.20;99.90;;;;;;4982828;28;20046;-52
2022/05/18 05:38:23;;;;;;;9.38;5.80;;;17.30;99.90;;;;;;4985433;28;21472;-52
2022/05/18 05:40:49;;;;;;;8.32;6.07;;;17.40;99.90;;;;;;4989893;28;20046;-51
2022/05/18 05:43:14;;;;;;;9.63;6.13;;;17.50;99.90;;;;;;4990553;28;20046;-49
2022/05/18 05:45:40;;;;;;;8.55;6.53;;;17.70;99.90;;;;;;4981067;28;20061;-51
2022/05/18 05:48:08;;;;;;;7.80;5.95;;;17.80;99.90;;;;;;4982018;28;20352;-51
2022/05/18 05:50:34;;;;;;;8.70;5.80;;;17.90;99.90;;;;;;4986237;28;20050;-50
2022/05/18 05:53:00;;;;;;;13.35;6.00;;;18.10;99.90;;;;;;4985513;28;20103;-50
2022/05/18 05:55:26;;;;;;;7.38;5.38;;;18.20;99.90;;;;;;4983251;28;20073;-50
2022/05/18 05:57:56;;;;;;;12.18;6.40;;;18.30;99.90;;;;;;4983069;28;20049;-51
2022/05/18 06:00:23;;;;;;;10.40;6.43;;;18.40;99.90;;;;;;4963255;28;20047;-51
2022/05/18 06:02:50;;;;;;;8.73;5.68;;;18.50;99.90;;;;;;4967480;28;20053;-49
2022/05/18 06:05:17;;;;;;;9.73;5.85;;;18.60;99.90;;;;;;4981244;28;20068;-47
2022/05/18 06:07:43;;;;;;;11.25;6.05;;;18.70;99.90;;;;;;4984299;28;20129;-50
2022/05/18 06:10:10;;;;;;;9.30;6.18;;;18.70;99.90;;;;;;4981960;28;20039;-45
2022/05/18 06:12:38;;;;;;;11.68;5.75;;;18.80;99.90;;;;;;4981669;28;20593;-51
2022/05/18 06:15:06;;;;;;;9.40;6.03;;;18.90;99.90;;;;;;4982511;28;20034;-50
2022/05/18 06:17:32;;;;;;;9.27;5.63;;;19.00;99.90;;;;;;4988645;28;20511;-52
2022/05/18 06:19:57;;;;;;;11.38;5.80;;;19.10;99.90;;;;;;4983887;28;20035;-52
2022/05/18 06:22:25;;;;;;;9.50;5.40;;;19.20;99.90;;;;;;4986073;28;20041;-53
2022/05/18 06:24:52;;;;;;;9.68;6.32;;;19.30;99.90;;;;;;4966716;28;20041;-47
2022/05/18 06:27:21;;;;;;;8.35;5.68;;;19.40;99.90;;;;;;4987015;28;20038;-50
2022/05/18 06:29:48;;;;;;;8.05;5.45;;;19.50;99.90;;;;;;4964313;28;20047;-52
2022/05/18 06:32:14;;;;;;;8.80;6.05;;;19.60;99.90;;;;;;4983513;28;20043;-52
2022/05/18 06:34:41;;;;;;;15.15;6.65;;;19.70;99.90;;;;;;4991644;28;20038;-52
2022/05/18 06:37:07;;;;;;;9.05;6.35;;;19.70;99.90;;;;;;4974878;28;20125;-51
2022/05/18 06:39:33;;;;;;;9.82;6.05;;;19.80;99.90;;;;;;4971958;28;21489;-51
2022/05/18 06:42:00;;;;;;;11.07;6.28;;;19.90;99.90;;;;;;4993047;28;20045;-51
2022/05/18 06:44:26;;;;;;;8.15;5.90;;;20.00;99.90;;;;;;4989789;28;20094;-50
2022/05/18 06:46:52;;;;;;;8.95;6.18;;;20.00;99.90;;;;;;4970631;28;20161;-51
2022/05/18 06:49:18;;;;;;;8.82;5.47;;;20.10;99.90;;;;;;4973488;28;20121;-51
2022/05/18 06:51:46;;;;;;;9.68;5.75;;;20.20;99.90;;;;;;4989156;28;20030;-52
2022/05/18 06:54:13;;;;;;;8.27;5.15;;;20.30;99.90;;;;;;4969555;28;20143;-50
2022/05/18 06:56:42;;;;;;;8.93;6.10;;;20.40;99.90;;;;;;4986711;28;20042;-50
2022/05/18 06:59:09;;;;;;;7.22;4.88;;;20.50;99.90;;;;;;4983761;28;20046;-51
2022/05/18 07:01:35;;;;;;;13.30;6.13;;;20.60;99.90;;;;;;4982773;28;20042;-46
2022/05/18 07:04:01;;;;;;;9.07;5.50;;;20.80;99.90;;;;;;4988650;28;20061;-48
2022/05/18 07:06:30;;;;;;;10.40;5.43;;;21.00;99.90;;;;;;4988224;28;20510;-51
2022/05/18 07:08:57;;;;;;;9.95;5.40;;;21.10;99.70;;;;;;4989367;28;20138;-50
2022/05/18 07:11:23;;;;;;;6.75;5.07;;;21.20;98.80;;;;;;4990328;28;20066;-51
2022/05/18 07:13:54;;;;;;;7.80;4.90;;;21.30;97.90;;;;;;4986077;28;20384;-48
2022/05/18 07:16:22;;;;;;;8.43;5.20;;;21.40;98.00;;;;;;4985317;28;20526;-47
2022/05/18 07:18:48;;;;;;;8.07;5.28;;;21.50;97.20;;;;;;4981863;28;20097;-50
2022/05/18 07:21:15;;;;;;;8.18;5.57;;;21.60;97.30;;;;;;4987866;28;20042;-51
2022/05/18 07:23:41;;;;;;;6.65;5.22;;;21.70;97.00;;;;;;4989060;28;20051;-49
2022/05/18 07:26:07;;;;;;;7.22;4.95;;;21.80;96.90;;;;;;4968522;28;20092;-51
2022/05/18 07:28:33;;;;;;;7.65;5.88;;;21.90;96.40;;;;;;4983967;28;20973;-50
2022/05/18 07:30:59;;;;;;;10.00;5.50;;;22.00;96.20;;;;;;4983606;28;20050;-50
2022/05/18 07:33:26;;;;;;;12.20;5.90;;;22.00;96.30;;;;;;4982484;28;20121;-51
2022/05/18 07:35:53;;;;;;;10.20;5.93;;;22.00;96.40;;;;;;4986479;28;20532;-45
2022/05/18 07:38:21;;;;;;;11.52;6.53;;;22.10;96.70;;;;;;4977827;28;20047;-47
2022/05/18 07:40:48;;;;;;;10.95;6.38;;;22.20;96.50;;;;;;4980559;28;20046;-51
2022/05/18 07:43:14;;;;;;;9.80;6.30;;;22.30;96.30;;;;;;4983011;28;20471;-46
2022/05/18 07:45:41;;;;;;;9.00;5.47;;;22.40;96.30;;;;;;4985547;28;20034;-50
2022/05/18 07:48:07;;;;;;;7.38;5.60;;;22.50;95.30;;;;;;4966303;28;20087;-51
2022/05/18 07:50:32;;;;;;;9.45;5.88;;;22.70;95.50;;;;;;4987272;28;20034;-51
2022/05/18 07:52:59;;;;;;;10.90;6.30;;;22.70;94.80;;;;;;4989230;28;20110;-52
2022/05/18 07:55:26;;;;;;;11.32;5.78;;;22.70;95.00;;;;;;4969779;28;20050;-50
2022/05/18 07:57:52;;;;;;;9.60;5.45;;;22.60;95.40;;;;;;4971765;28;20042;-51
2022/05/18 08:00:20;;;;;;;9.25;5.97;;;22.50;95.90;;;;;;4966858;28;20082;-46
2022/05/18 08:02:46;;;;;;;8.50;5.97;;;22.60;96.10;;;;;;4981496;28;20133;-51
2022/05/18 08:05:12;;;;;;;9.98;5.97;;;22.70;96.10;;;;;;4979738;28;20121;-49
2022/05/18 08:07:39;;;;;;;10.98;5.60;;;22.80;95.90;;;;;;4988347;28;20030;-51
2022/05/18 08:15:34;;;;;;;8.95;5.85;;;23.10;94.80;;;;;;4967486;28;20050;-51
2022/05/18 08:18:00;;;;;;;10.27;6.65;;;23.10;94.30;;;;;;4986239;28;20045;-51
2022/05/18 08:20:25;;;;;;;7.03;5.82;;;23.20;94.10;;;;;;4981213;28;20046;-48
2022/05/18 08:22:52;;;;;;;10.23;6.00;;;23.20;94.00;;;;;;4988375;28;20039;-52
2022/05/18 08:25:18;;;;;;;9.20;5.72;;;23.30;93.80;;;;;;4987540;28;20034;-50
2022/05/18 08:27:47;;;;;;;9.82;5.43;;;23.30;93.20;;;;;;4985405;28;20038;-52
2022/05/18 08:30:16;;;;;;;9.98;5.93;;;23.20;92.40;;;;;;4986578;28;20046;-51
2022/05/18 08:32:42;;;;;;;10.30;6.00;;;23.20;93.10;;;;;;4951215;28;20042;-53
2022/05/18 08:35:09;;;;;;;8.98;6.07;;;23.20;93.30;;;;;;4982852;28;20050;-52
2022/05/18 08:37:39;;;;;;;11.90;6.13;;;23.20;92.70;;;;;;4962045;28;20045;-53
2022/05/18 08:40:07;;;;;;;11.60;6.03;;;23.20;91.60;;;;;;4982174;28;20121;-53
2022/05/18 08:42:34;;;;;;;10.23;6.05;;;23.30;91.80;;;;;;4970026;28;20402;-52
2022/05/18 08:45:00;;;;;;;8.85;6.38;;;23.40;91.70;;;;;;4981895;28;20039;-52
2022/05/18 08:47:38;;;;;;;10.40;7.10;;;23.40;90.90;;;;;;4989927;28;20041;-52
2022/05/18 08:50:18;;;;;;;12.25;7.65;;;23.40;90.10;;;;;;4990402;28;20064;-52
2022/05/18 08:53:02;;;;;;;11.10;7.72;;;23.40;87.80;;;;;;4971674;28;20498;-53
2022/05/18 08:56:19;;;;;;;11.25;7.97;;;23.30;87.30;;;;;;4988249;28;20035;-49
2022/05/18 08:58:49;;;;;;;15.10;8.43;;;23.30;88.20;;;;;;4962719;28;20693;-52
2022/05/18 09:01:21;;;;;;;14.13;7.88;;;23.20;87.50;;;;;;4985646;28;20042;-51
2022/05/18 09:03:50;;;;;;;;;;;23.20;90.00;;;;;;4987645;28;20034;-53
2022/05/18 09:06:39;;;;;;;18.02;7.15;;;23.30;89.30;;;;;;4966642;28;19964;-49
2022/05/18 09:11:51;;;;;;;14.27;8.30;;;23.50;90.10;;;;;;4986131;28;20365;-49
2022/05/18 09:14:20;;;;;;;15.60;8.82;;;23.50;87.80;;;;;;4986338;28;20040;-52
2022/05/18 09:17:17;;;;;;;12.02;8.43;;;23.50;87.90;;;;;;4987260;28;20081;-52
2022/05/18 09:19:52;;;;;;;11.65;8.13;;;23.50;88.00;;;;;;4990279;28;20523;-53
2022/05/18 09:22:45;;;;;;;12.82;8.38;;;23.60;88.90;;;;;;4988212;28;20507;-51
2022/05/18 09:25:41;;;;;;;15.88;9.80;;;23.70;89.10;;;;;;4981928;28;20133;-48
2022/05/18 09:28:18;;;;;;;12.30;8.32;;;23.80;87.60;;;;;;4982910;28;20042;-50
2022/05/18 09:30:44;;;;;;;11.68;8.95;;;23.80;87.90;;;;;;4983749;28;20439;-50
2022/05/18 09:33:43;;;;;;;12.25;9.32;;;23.90;88.70;;;;;;4984745;28;20046;-53
2022/05/18 09:36:33;;;;;;;13.55;9.02;;;24.10;86.60;;;;;;4986585;28;20077;-53
2022/05/18 09:39:09;;;;;;;12.50;9.25;;;24.10;85.20;;;;;;4982391;28;20527;-53
2022/05/18 09:41:44;;;;;;;14.25;9.52;;;24.20;85.90;;;;;;4985645;28;20049;-49
2022/05/18 09:44:38;;;;;;;13.95;9.60;;;24.40;84.70;;;;;;4985293;28;20042;-51
2022/05/18 09:47:04;;;;;;;14.98;10.45;;;24.40;81.20;;;;;;4980301;28;20106;-51
2022/05/18 09:49:36;;;;;;;12.93;8.50;;;24.40;83.50;;;;;;4987192;28;20042;-52
2022/05/18 09:52:04;;;;;;;10.88;8.52;;;24.60;84.00;;;;;;4962885;28;20444;-50
2022/05/18 09:54:31;;;;;;;13.07;10.10;;;24.70;83.80;;;;;;4970280;28;20125;-55
2022/05/18 09:57:18;;;;;;;12.85;9.82;;;24.80;84.50;;;;;;4984520;28;20050;-52
2022/05/18 09:59:48;;;;;;;13.90;10.93;;;24.80;82.00;;;;;;4982019;28;20551;-49
2022/05/18 10:08:13;;;;;;;15.75;11.93;;;24.90;81.10;;;;;;4984988;28;20177;-53
2022/05/18 10:10:40;;;;;;;15.43;10.10;;;25.00;81.80;;;;;;4993471;28;20046;-54
2022/05/18 10:13:18;;;;;;;13.93;10.55;;;25.10;82.00;;;;;;4990861;28;20129;-52
2022/05/18 10:15:49;;;;;;;13.30;10.20;;;25.20;81.40;;;;;;4992982;28;20034;-53
2022/05/18 10:18:23;;;;;;;14.60;11.25;;;25.30;80.70;;;;;;4989508;28;20038;-52
2022/05/18 10:21:11;;;;;;;19.52;11.73;;;25.10;79.30;;;;;;4986837;28;20042;-53
2022/05/18 10:23:52;;;;;;;15.43;11.93;;;25.00;80.40;;;;;;4991463;28;20499;-52
2022/05/18 10:26:26;;;;;;;14.15;12.27;;;25.00;79.70;;;;;;4991272;28;20042;-53
2022/05/18 10:28:56;;;;;;;16.05;12.30;;;25.00;80.10;;;;;;4987627;28;20035;-49
2022/05/18 10:31:38;;;;;;;15.75;12.00;;;25.00;79.90;;;;;;4990507;28;20049;-50
2022/05/18 10:34:28;;;;;;;13.27;10.60;;;25.10;80.90;;;;;;4987991;28;20042;-50
2022/05/18 10:36:59;;;;;;;17.02;12.07;;;25.20;80.10;;;;;;4991510;28;20042;-51
2022/05/18 10:39:40;;;;;;;14.73;11.82;;;25.30;80.70;;;;;;4991691;28;20399;-50
2022/05/18 10:42:25;;;;;;;14.05;11.50;;;25.30;80.10;;;;;;4991572;28;20061;-52
2022/05/18 10:44:53;;;;;;;13.23;10.85;;;25.40;80.00;;;;;;4993986;28;20038;-52
2022/05/18 10:47:35;;;;;;;14.40;11.98;;;25.50;81.00;;;;;;4994292;28;20042;-52
2022/05/18 10:50:32;;;;;;;16.58;11.95;;;25.50;78.40;;;;;;4994999;28;20038;-52
2022/05/18 10:53:12;;;;;;;15.70;10.88;;;25.50;79.70;;;;;;4992921;28;20467;-51
2022/05/18 10:55:56;;;;;;;13.68;11.82;;;25.40;79.70;;;;;;4993965;28;20046;-47
2022/05/18 10:58:28;;;;;;;14.07;10.88;;;25.30;79.60;;;;;;4991536;28;20511;-49
2022/05/18 11:01:05;;;;;;;15.00;11.52;;;25.30;80.70;;;;;;4995636;28;20065;-49
2022/05/18 11:04:00;;;;;;;15.43;11.65;;;25.40;80.80;;;;;;4992260;28;20034;-51
2022/05/18 11:06:34;;;;;;;16.52;12.13;;;25.50;80.50;;;;;;4990330;28;20501;-52
2022/05/18 11:09:17;;;;;;;16.55;11.75;;;25.50;80.10;;;;;;4993780;28;20468;-50
2022/05/18 11:11:49;;;;;;;;;;;25.50;79.30;;;;;;4990221;28;20038;-50
2022/05/18 11:14:33;;;;;;;17.85;12.52;;;25.60;80.00;;;;;;4974584;28;20306;-52
2022/05/18 11:17:18;;;;;;;15.65;10.80;;;25.60;79.10;;;;;;4987282;28;20118;-48
2022/05/18 11:20:01;;;;;;;15.43;12.18;;;25.70;79.40;;;;;;4990017;28;20442;-53
2022/05/18 11:22:34;;;;;;;14.02;11.23;;;25.90;78.40;;;;;;4973568;28;20046;-49
2022/05/18 11:25:18;;;;;;;13.93;10.23;;;26.30;77.40;;;;;;4992267;28;20042;-48
2022/05/18 11:27:56;;;;;;;12.73;11.27;;;26.50;78.10;;;;;;4992787;28;20042;-53
2022/05/18 11:30:34;;;;;;;15.07;11.30;;;26.40;73.90;;;;;;4988893;28;20285;-49
2022/05/18 11:33:31;;;;;;;15.98;11.73;;;26.30;73.20;;;;;;4988253;28;20057;-52
2022/05/18 11:36:05;;;;;;;14.38;9.93;;;26.30;75.10;;;;;;4984818;28;20461;-50
2022/05/18 11:38:54;;;;;;;14.27;10.00;;;26.30;75.30;;;;;;4989783;28;20133;-51
2022/05/18 11:41:53;;;;;;;10.73;8.80;;;26.40;75.30;;;;;;4987474;28;20085;-53
2022/05/18 11:44:36;;;;;;;11.93;8.77;;;26.40;74.50;;;;;;4991816;28;20485;-52
2022/05/18 11:47:42;;;;;;;10.32;6.72;;;26.30;75.10;;;;;;4990780;28;20601;-53
2022/05/18 11:50:30;;;;;;;12.00;7.03;;;26.20;77.80;;;;;;4952595;28;20124;-51
2022/05/18 11:53:13;;;;;;;12.20;7.18;;;26.10;75.60;;;;;;4992345;28;20034;-53
2022/05/18 11:55:48;;;;;;;11.25;6.97;;;26.00;76.70;;;;;;4987991;28;20038;-52
2022/05/18 11:58:21;;;;;;;9.65;6.05;;;26.10;78.60;;;;;;4990981;28;20050;-52
2022/05/18 12:00:57;;;;;;;12.30;8.65;;;26.40;78.30;;;;;;4988227;28;20084;-53
2022/05/18 12:03:53;;;;;;;12.32;8.48;;;26.60;76.00;;;;;;4988856;28;20404;-53
2022/05/18 12:07:01;;;;;;;10.85;6.93;;;26.80;71.70;;;;;;4983336;28;20089;-52
2022/05/18 12:09:44;;;;;;;8.77;7.25;;;27.10;73.90;;;;;;4988737;28;20030;-52
2022/05/18 12:12:28;;;;;;;13.57;6.72;;;27.20;72.20;;;;;;4990050;28;20042;-53
2022/05/18 12:15:00;;;;;;;10.75;6.22;;;26.90;71.80;;;;;;4969370;28;20042;-51
2022/05/18 12:17:41;;;;;;;10.75;6.68;;;26.80;73.60;;;;;;4972492;28;20062;-53
2022/05/18 12:20:30;;;;;;;10.13;6.10;;;26.80;73.20;;;;;;4989749;28;20042;-51
2022/05/18 12:22:59;;;;;;;12.50;7.68;;;26.70;73.70;;;;;;4985506;28;20526;-52
2022/05/18 12:25:28;;;;;;;10.60;6.85;;;26.70;74.40;;;;;;4971916;28;20041;-52
2022/05/18 12:27:57;;;;;;;15.82;7.95;;;26.60;74.60;;;;;;4981674;28;20066;-51
2022/05/18 12:30:25;;;;;;;14.20;7.82;;;26.60;74.10;;;;;;4984109;28;20439;-51
2022/05/18 12:32:53;;;;;;;15.48;7.60;;;26.50;74.40;;;;;;4988586;28;20157;-51
2022/05/18 12:35:35;;;;;;;10.43;6.75;;;26.40;74.20;;;;;;4990763;28;20432;-49
2022/05/18 12:38:27;;;;;;;10.18;7.03;;;26.30;75.60;;;;;;4970847;28;20321;-52
2022/05/18 12:41:08;;;;;;;;;;;26.10;77.00;;;;;;4987067;28;20046;-50
2022/05/18 12:43:44;;;;;;;10.83;8.07;;;25.90;77.50;;;;;;4989468;28;19949;-53
2022/05/18 12:46:16;;;;;;;13.68;9.48;;;25.90;77.60;;;;;;4987598;28;20050;-52
2022/05/18 12:49:04;;;;;;;14.10;9.60;;;25.90;77.70;;;;;;4988692;28;20038;-53
2022/05/18 12:51:30;;;;;;;15.07;10.20;;;25.90;78.20;;;;;;4987214;28;20136;-53
2022/05/18 12:54:11;;;;;;;14.10;8.80;;;25.90;77.40;;;;;;4986299;28;20117;-52
2022/05/18 12:56:36;;;;;;;13.18;9.20;;;26.00;76.20;;;;;;4986727;28;20129;-53
2022/05/18 12:59:16;;;;;;;17.15;10.80;;;26.10;76.80;;;;;;4985776;28;20169;-51
2022/05/18 13:01:46;;;;;;;12.80;9.10;;;26.10;74.60;;;;;;4983379;28;20396;-53
2022/05/18 13:04:15;;;;;;;13.88;8.65;;;26.10;76.30;;;;;;4986461;28;20081;-53
2022/05/18 13:06:52;;;;;;;14.88;8.90;;;26.10;77.10;;;;;;4988496;28;20431;-53
2022/05/18 13:09:34;;;;;;;13.80;9.23;;;26.40;76.50;;;;;;4989144;28;20038;-51
2022/05/18 13:12:27;;;;;;;14.02;9.35;;;26.50;74.40;;;;;;4967875;28;20050;-51
2022/05/18 13:15:24;;;;;;;14.70;10.18;;;26.70;73.00;;;;;;4975823;28;20301;-52
2022/05/18 13:18:04;;;;;;;13.25;10.05;;;26.90;71.10;;;;;;4985459;28;20053;-52